Terminal Aerodrome Forecast
Issued by NWS Lake Charles, LA

Home | Current Version | Previous Version | Text Only | Print | Product List | Glossary On
Versions: 1 2 3 4 5 6 7 8 9 10 11 12 13 14 15 16 17 18 19
729
FTUS44 KLCH 171123
TAFLCH
TAF
KLCH 171123Z 1712/1812 17008KT P6SM FEW005 BKN025
      TEMPO 1712/1715 6SM BR OVC015
     FM171500 16009KT P6SM VCTS OVC025CB
     FM180200 15005KT P6SM VCSH SCT005 OVC015=

USA.gov is the U.S. government's official web portal to all federal, state and local government web resources and services.